Time;durP1;ratioP1;P1;durP2;ratioP2;P2;SDS_P1;SDS_P2;PMS_P1;PMS_P2;Temp;Humidity;BMP_temperature;BMP_pressure;BME280_temperature;BME280_humidity;BME280_pressure;Samples;Min_cycle;Max_cycle;Signal;HPM_P1;HPM_P2
2022/11/05 00:09:53;;;;;;;5.13;1.52;;;6.90;99.90;;;;;;5013023;28;20080;-88
2022/11/05 00:19:50;;;;;;;;;;;;;;;;;;;;;
2022/11/05 00:27:04;;;;;;;1.55;0.85;;;6.70;99.90;;;;;;5026770;28;20045;-87
2022/11/05 00:30:10;;;;;;;5.50;1.10;;;6.70;99.90;;;;;;5006815;28;20052;-90
2022/11/05 00:33:36;;;;;;;;;;;;;;;;;;;;;
2022/11/05 00:36:58;;;;;;;3.05;1.00;;;6.70;99.90;;;;;;4996796;28;20470;-88
2022/11/05 00:40:23;;;;;;;;;;;;;;;;;;;;;
2022/11/05 00:46:41;;;;;;;4.60;1.02;;;6.70;99.90;;;;;;5016210;28;20050;-87
2022/11/05 00:49:58;;;;;;;2.05;0.75;;;6.70;99.90;;;;;;4996923;28;20038;-85
2022/11/05 00:53:28;;;;;;;3.95;1.00;;;6.70;99.90;;;;;;5009714;28;20400;-87
2022/11/05 00:57:04;;;;;;;;;;;;;;;;;;;;;
2022/11/05 01:00:11;;;;;;;6.78;1.30;;;6.70;99.90;;;;;;4992573;28;20054;-88
2022/11/05 01:03:11;;;;;;;4.38;1.58;;;6.70;99.90;;;;;;5008786;28;20095;-89
2022/11/05 01:06:44;;;;;;;;;;;;;;;;;;;;;
2022/11/05 01:09:39;;;;;;;;;;;;;;;;;;;;;
2022/11/05 01:13:16;;;;;;;4.07;1.40;;;6.60;99.90;;;;;;4935812;29;20051;-85
2022/11/05 01:16:25;;;;;;;3.33;1.00;;;6.70;99.90;;;;;;4936564;29;20138;-86
2022/11/05 01:19:39;;;;;;;3.60;1.10;;;6.70;99.90;;;;;;4918146;29;20056;-87
2022/11/05 01:22:31;;;;;;;1.20;0.80;;;6.70;99.90;;;;;;4925537;29;20134;-86
2022/11/05 01:25:34;;;;;;;2.63;1.05;;;6.70;99.90;;;;;;4920605;29;20048;-87
2022/11/05 01:28:36;;;;;;;1.63;1.05;;;7.30;99.90;;;;;;4929748;29;20123;-87
2022/11/05 01:31:49;;;;;;;;;;;;;;;;;;;;;
2022/11/05 01:34:50;;;;;;;;;;;;;;;;;;;;;
2022/11/05 01:37:51;;;;;;;3.22;1.10;;;6.70;99.90;;;;;;4943838;29;20059;-87
2022/11/05 01:41:20;;;;;;;2.25;0.77;;;6.80;99.90;;;;;;4958774;28;20039;-86
2022/11/05 01:44:45;;;;;;;;;;;;;;;;;;;;;
2022/11/05 01:48:16;;;;;;;3.55;0.98;;;6.70;99.90;;;;;;4970988;28;20532;-88
2022/11/05 01:51:44;;;;;;;;;;;;;;;;;;;;;
2022/11/05 01:55:02;;;;;;;4.45;0.90;;;6.60;99.90;;;;;;5011339;28;20050;-88
2022/11/05 01:58:23;;;;;;;4.07;1.00;;;6.60;99.90;;;;;;4989909;28;20105;-87
2022/11/05 02:01:32;;;;;;;1.88;0.80;;;6.70;99.90;;;;;;5003111;28;20050;-87
2022/11/05 02:05:00;;;;;;;;;;;;;;;;;;;;;
2022/11/05 02:08:07;;;;;;;3.22;1.00;;;6.60;99.90;;;;;;5023386;28;20529;-89
2022/11/05 02:11:16;;;;;;;3.53;1.05;;;7.00;99.90;;;;;;5010461;28;20496;-86
2022/11/05 02:14:21;;;;;;;2.38;0.80;;;6.60;99.90;;;;;;5010429;28;20046;-88
2022/11/05 02:17:46;;;;;;;4.13;0.80;;;6.70;99.90;;;;;;4997293;28;20049;-88
2022/11/05 02:21:18;;;;;;;2.80;0.70;;;6.60;99.90;;;;;;5017191;28;20064;-85
2022/11/05 02:24:58;;;;;;;1.08;0.63;;;6.60;99.90;;;;;;4986529;28;20054;-86
2022/11/05 02:29:12;;;;;;;;;;;;;;;;;;;;;
2022/11/05 02:32:39;;;;;;;1.00;0.70;;;6.70;99.90;;;;;;4874426;29;20094;-87
2022/11/05 02:36:16;;;;;;;;;;;;;;;;;;;;;
2022/11/05 02:39:46;;;;;;;3.17;1.00;;;6.70;99.90;;;;;;4859703;29;20072;-89
2022/11/05 02:43:35;;;;;;;;;;;;;;;;;;;;;
2022/11/05 02:47:05;;;;;;;;;;;;;;;;;;;;;
2022/11/05 02:50:30;;;;;;;3.35;0.95;;;5.90;99.90;;;;;;4872844;29;20048;-89
2022/11/05 02:54:02;;;;;;;4.32;1.05;;;6.70;99.90;;;;;;4876775;29;20053;-87
2022/11/05 02:57:42;;;;;;;;;;;;;;;;;;;;;
2022/11/05 03:01:07;;;;;;;3.72;0.70;;;6.60;99.90;;;;;;4875306;29;20185;-87
2022/11/05 03:04:45;;;;;;;1.42;0.80;;;6.60;99.90;;;;;;4884704;29;20522;-87
2022/11/05 03:08:08;;;;;;;2.13;0.60;;;6.60;99.90;;;;;;4855284;29;20060;-88
2022/11/05 03:11:40;;;;;;;1.17;0.50;;;6.50;99.90;;;;;;4909571;29;20066;-87
2022/11/05 03:15:09;;;;;;;0.70;0.40;;;6.50;99.90;;;;;;4874159;29;20056;-87
2022/11/05 03:18:25;;;;;;;1.80;0.40;;;6.40;99.90;;;;;;4899783;29;20135;-90
2022/11/05 03:21:50;;;;;;;1.10;0.38;;;6.40;99.90;;;;;;4933277;29;20039;-87
2022/11/05 03:25:18;;;;;;;0.35;0.25;;;6.40;99.90;;;;;;4929622;29;20047;-88
2022/11/05 03:28:52;;;;;;;0.57;0.40;;;6.30;99.90;;;;;;4926830;29;20044;-86
2022/11/05 03:32:38;;;;;;;;;;;;;;;;;;;;;
2022/11/05 03:36:02;;;;;;;;;;;;;;;;;;;;;
2022/11/05 03:39:04;;;;;;;0.47;0.40;;;6.20;99.90;;;;;;4929711;29;20044;-87
2022/11/05 03:42:40;;;;;;;0.52;0.30;;;6.10;99.90;;;;;;4931004;29;20079;-87
2022/11/05 03:45:38;;;;;;;2.55;0.40;;;6.20;99.90;;;;;;4930526;29;20095;-87
2022/11/05 03:48:58;;;;;;;;;;;;;;;;;;;;;
2022/11/05 03:52:38;;;;;;;2.85;0.43;;;7.30;99.90;;;;;;5008853;28;20048;-87
2022/11/05 03:56:08;;;;;;;1.02;0.50;;;6.20;99.90;;;;;;4991030;28;20062;-90
2022/11/05 03:58:54;;;;;;;1.42;0.60;;;6.30;99.90;;;;;;4992115;28;20037;-88
2022/11/05 04:02:06;;;;;;;1.98;0.45;;;6.40;99.90;;;;;;5004959;28;20046;-89
2022/11/05 04:05:27;;;;;;;1.63;0.50;;;6.50;99.90;;;;;;5009526;28;20057;-86
2022/11/05 04:27:12;;;;;;;;;;;;;;;;;;;;;
2022/11/05 04:30:22;;;;;;;1.63;0.63;;;6.90;99.90;;;;;;5011218;28;20052;-85
2022/11/05 04:33:35;;;;;;;4.38;0.70;;;6.90;99.90;;;;;;5012398;28;20049;-88
2022/11/05 04:37:09;;;;;;;1.98;0.70;;;7.50;99.90;;;;;;5014126;28;20609;-86
2022/11/05 04:40:10;;;;;;;1.33;0.70;;;6.20;99.90;;;;;;5009196;28;20046;-87
2022/11/05 04:43:28;;;;;;;;;;;;;;;;;;;;;
2022/11/05 04:46:58;;;;;;;1.30;0.70;;;7.00;99.90;;;;;;5020477;28;20052;-87
2022/11/05 04:50:14;;;;;;;1.73;0.60;;;7.00;99.90;;;;;;5010361;28;20415;-86
2022/11/05 04:53:30;;;;;;;0.30;0.30;;;7.00;99.90;;;;;;5000153;28;20045;-88
2022/11/05 04:56:33;;;;;;;1.75;0.55;;;6.90;99.90;;;;;;5010155;28;20410;-88
2022/11/05 05:00:00;;;;;;;;;;;;;;;;;;;;;
2022/11/05 05:03:38;;;;;;;2.58;0.70;;;6.80;99.90;;;;;;5023320;28;20848;-86
2022/11/05 05:07:16;;;;;;;1.63;0.70;;;6.80;99.90;;;;;;5008625;28;20082;-87
2022/11/05 05:10:24;;;;;;;0.65;0.50;;;6.80;99.90;;;;;;4986419;28;20065;-87
2022/11/05 05:13:42;;;;;;;1.63;0.70;;;6.80;99.90;;;;;;5012316;28;20046;-87
2022/11/05 05:16:55;;;;;;;;;;;;;;;;;;;;;
2022/11/05 05:24:08;;;;;;;;;;;;;;;;;;;;;
2022/11/05 05:27:24;;;;;;;1.10;0.40;;;6.70;99.90;;;;;;5018705;28;20413;-87
2022/11/05 05:30:40;;;;;;;0.60;0.40;;;6.60;99.90;;;;;;5008366;28;20172;-86
2022/11/05 05:33:56;;;;;;;;;;;;;;;;;;;;;
2022/11/05 05:37:14;;;;;;;;;;;;;;;;;;;;;
2022/11/05 05:40:28;;;;;;;;;;;;;;;;;;;;;
2022/11/05 05:43:33;;;;;;;1.08;0.50;;;6.60;99.90;;;;;;4963941;28;20038;-86
2022/11/05 05:46:45;;;;;;;1.10;0.60;;;6.60;99.90;;;;;;4991790;28;20180;-87
2022/11/05 05:50:00;;;;;;;0.70;0.50;;;6.50;99.90;;;;;;5006977;28;20053;-88
2022/11/05 05:53:28;;;;;;;1.30;0.73;;;6.50;99.90;;;;;;5014945;28;20056;-86
2022/11/05 05:56:46;;;;;;;1.58;0.70;;;6.50;99.90;;;;;;5006601;28;20422;-87
2022/11/05 05:59:58;;;;;;;;;;;;;;;;;;;;;
2022/11/05 06:03:19;;;;;;;;;;;;;;;;;;;;;
2022/11/05 06:06:45;;;;;;;2.05;1.05;;;6.50;99.90;;;;;;5016191;28;20049;-86
2022/11/05 06:09:51;;;;;;;2.55;1.05;;;6.40;99.90;;;;;;4982314;28;20093;-86
2022/11/05 06:12:55;;;;;;;4.13;1.13;;;6.50;99.90;;;;;;4990984;28;20073;-87
2022/11/05 06:16:22;;;;;;;;;;;;;;;;;;;;;
2022/11/05 06:19:42;;;;;;;;;;;;;;;;;;;;;
2022/11/05 06:23:03;;;;;;;1.67;1.00;;;6.40;99.90;;;;;;5015012;28;20042;-90
2022/11/05 06:26:32;;;;;;;1.63;0.80;;;6.30;99.90;;;;;;5012343;28;20430;-87
2022/11/05 06:29:56;;;;;;;;;;;;;;;;;;;;;
2022/11/05 06:33:05;;;;;;;1.10;0.73;;;6.30;99.90;;;;;;4987770;28;20054;-87
2022/11/05 06:35:52;;;;;;;2.13;0.75;;;6.30;99.90;;;;;;4998673;28;20041;-94
2022/11/05 06:38:52;;;;;;;4.88;1.17;;;6.20;99.90;;;;;;5016307;28;20115;-92
2022/11/05 06:41:39;;;;;;;2.20;0.70;;;6.20;99.90;;;;;;5007803;28;20045;-89
2022/11/05 06:44:39;;;;;;;4.93;0.90;;;6.20;99.90;;;;;;5032784;28;20092;-92
2022/11/05 06:47:24;;;;;;;1.88;0.80;;;6.20;99.90;;;;;;5020836;28;20052;-93
2022/11/05 06:50:32;;;;;;;;;;;;;;;;;;;;;
2022/11/05 06:53:30;;;;;;;2.83;1.15;;;6.20;99.90;;;;;;4993713;28;20060;-92
2022/11/05 06:56:15;;;;;;;1.88;1.00;;;6.10;99.90;;;;;;4985047;28;20053;-93
2022/11/05 06:59:23;;;;;;;1.48;0.80;;;6.20;99.90;;;;;;5003556;28;20469;-91
2022/11/05 07:02:32;;;;;;;1.55;0.93;;;6.20;99.90;;;;;;5015040;28;20042;-91
2022/11/05 07:05:50;;;;;;;;;;;;;;;;;;;;;
2022/11/05 07:08:47;;;;;;;1.88;1.00;;;6.20;99.90;;;;;;5028365;28;20049;-90
2022/11/05 07:11:40;;;;;;;1.83;1.10;;;6.20;99.90;;;;;;5010625;28;20141;-91
2022/11/05 07:14:41;;;;;;;2.85;1.00;;;6.20;99.90;;;;;;5013921;28;20095;-90
2022/11/05 07:17:27;;;;;;;2.08;0.70;;;6.10;99.90;;;;;;5015887;28;20449;-95
2022/11/05 07:20:24;;;;;;;2.08;0.95;;;6.10;99.90;;;;;;5035425;28;20053;-94
2022/11/05 07:23:23;;;;;;;3.05;1.45;;;6.10;99.90;;;;;;5003512;28;20046;-94
2022/11/05 07:26:27;;;;;;;;;;;;;;;;;;;;;
2022/11/05 07:29:28;;;;;;;1.05;0.77;;;6.10;99.90;;;;;;5008397;28;20394;-91
2022/11/05 07:32:52;;;;;;;;;;;;;;;;;;;;;
2022/11/05 07:36:16;;;;;;;2.00;0.90;;;6.20;99.90;;;;;;4981235;28;20062;-90
2022/11/05 07:39:06;;;;;;;3.42;0.88;;;6.20;99.90;;;;;;4965872;28;20059;-87
2022/11/05 07:41:53;;;;;;;3.03;0.88;;;6.20;99.90;;;;;;4973249;28;20054;-92
2022/11/05 07:45:15;;;;;;;1.88;0.90;;;6.60;99.90;;;;;;4987990;28;20046;-90
2022/11/05 07:48:20;;;;;;;1.25;0.82;;;7.00;99.90;;;;;;4981716;28;20547;-86
2022/11/05 07:51:31;;;;;;;;;;;;;;;;;;;;;
2022/11/05 07:54:47;;;;;;;2.97;1.13;;;6.40;99.90;;;;;;4955859;28;20511;-91
2022/11/05 07:57:55;;;;;;;;;;;;;;;;;;;;;
2022/11/05 08:00:55;;;;;;;;;;;;;;;;;;;;;
2022/11/05 08:03:58;;;;;;;3.05;1.23;;;6.80;99.90;;;;;;4966773;28;20093;-89
2022/11/05 08:07:01;;;;;;;1.55;0.80;;;6.80;99.90;;;;;;4976565;28;20082;-93
2022/11/05 08:09:42;;;;;;;2.30;1.33;;;6.70;99.90;;;;;;4953455;28;20058;-86
2022/11/05 08:12:40;;;;;;;2.88;1.48;;;7.00;99.90;;;;;;4975333;28;20066;-89
2022/11/05 08:15:48;;;;;;;2.92;1.17;;;7.00;99.90;;;;;;4983026;28;20078;-88
2022/11/05 08:18:57;;;;;;;;;;;;;;;;;;;;;
2022/11/05 08:21:53;;;;;;;3.60;1.15;;;7.20;99.90;;;;;;4975155;28;20294;-92
2022/11/05 08:24:58;;;;;;;;;;;;;;;;;;;;;
2022/11/05 08:27:29;;;;;;;2.15;1.10;;;7.40;99.90;;;;;;4960654;28;20121;-87
2022/11/05 08:29:55;;;;;;;2.90;1.40;;;7.40;99.90;;;;;;4975146;28;20043;-86
2022/11/05 08:32:33;;;;;;;4.15;1.50;;;7.50;99.90;;;;;;4981169;28;20053;-91
2022/11/05 08:35:06;;;;;;;3.65;1.20;;;7.00;99.90;;;;;;4978242;28;20054;-91
2022/11/05 08:37:41;;;;;;;6.28;1.63;;;7.70;99.90;;;;;;4976889;28;20042;-93
2022/11/05 08:40:24;;;;;;;3.67;1.92;;;7.80;99.90;;;;;;4981000;28;20768;-91
2022/11/05 08:42:59;;;;;;;2.42;1.38;;;7.90;99.90;;;;;;4975270;28;20146;-89
2022/11/05 08:45:29;;;;;;;4.30;1.17;;;8.00;99.90;;;;;;4974924;28;20047;-91
2022/11/05 08:48:08;;;;;;;1.48;1.10;;;8.10;99.90;;;;;;4960425;28;20089;-90
2022/11/05 08:50:46;;;;;;;4.28;1.55;;;8.20;99.90;;;;;;4975957;28;20047;-88
2022/11/05 08:53:21;;;;;;;1.40;1.02;;;8.30;99.90;;;;;;4960058;28;20054;-92
2022/11/05 08:56:25;;;;;;;;;;;;;;;;;;;;;
2022/11/05 08:59:30;;;;;;;;;;;;;;;;;;;;;
2022/11/05 09:02:41;;;;;;;;;;;;;;;;;;;;;
2022/11/05 09:05:44;;;;;;;3.53;1.45;;;8.80;99.90;;;;;;4972246;28;20048;-88
2022/11/05 09:08:55;;;;;;;3.53;1.40;;;8.90;99.90;;;;;;4995734;28;20634;-90
2022/11/05 09:12:16;;;;;;;6.13;2.15;;;9.00;99.90;;;;;;4996576;28;20097;-91
2022/11/05 09:15:48;;;;;;;5.63;2.10;;;9.30;99.90;;;;;;4995897;28;20392;-90
2022/11/05 09:19:10;;;;;;;;;;;;;;;;;;;;;
2022/11/05 09:22:41;;;;;;;5.43;1.67;;;9.50;99.90;;;;;;4995896;28;20054;-89
2022/11/05 09:25:45;;;;;;;4.03;1.60;;;9.70;99.90;;;;;;4995404;28;20046;-89
2022/11/05 09:28:53;;;;;;;1.73;1.00;;;9.70;99.90;;;;;;4996177;28;20053;-88
2022/11/05 09:31:46;;;;;;;2.20;1.00;;;9.70;99.90;;;;;;4995894;28;20089;-91
2022/11/05 09:35:02;;;;;;;2.53;1.42;;;9.80;99.90;;;;;;4995833;28;20046;-89
2022/11/05 09:38:13;;;;;;;;;;;;;;;;;;;;;
2022/11/05 09:41:07;;;;;;;2.90;1.23;;;10.00;99.90;;;;;;4996268;28;20050;-89
2022/11/05 09:44:22;;;;;;;4.38;1.30;;;10.10;99.90;;;;;;4995915;28;20038;-88
2022/11/05 09:47:24;;;;;;;5.07;1.17;;;9.90;99.90;;;;;;4995729;28;20538;-89
2022/11/05 09:50:31;;;;;;;0.95;0.70;;;9.40;99.90;;;;;;4977881;28;20064;-90
2022/11/05 09:53:48;;;;;;;1.52;0.93;;;10.30;99.90;;;;;;4995788;28;20046;-91
2022/11/05 09:56:51;;;;;;;1.63;0.70;;;10.10;99.90;;;;;;4995569;28;20045;-89
2022/11/05 10:00:16;;;;;;;2.45;1.20;;;10.20;99.90;;;;;;4995072;28;20043;-88
2022/11/05 10:03:36;;;;;;;;;;;;;;;;;;;;;
2022/11/05 10:06:56;;;;;;;3.20;0.90;;;10.10;99.90;;;;;;4988754;28;20085;-89
2022/11/05 10:10:10;;;;;;;1.40;0.80;;;10.20;99.90;;;;;;4993701;28;20496;-90
2022/11/05 10:13:32;;;;;;;;;;;;;;;;;;;;;
2022/11/05 10:16:45;;;;;;;3.80;1.00;;;10.30;99.90;;;;;;4994143;28;20046;-87
2022/11/05 10:19:58;;;;;;;1.65;0.70;;;10.40;99.90;;;;;;4937176;29;20075;-88
2022/11/05 10:23:07;;;;;;;4.85;0.90;;;10.50;99.90;;;;;;4942236;29;20063;-89
2022/11/05 10:26:18;;;;;;;;;;;;;;;;;;;;;
2022/11/05 10:29:31;;;;;;;3.47;0.90;;;10.80;99.90;;;;;;4956422;29;20092;-87
2022/11/05 10:33:05;;;;;;;;;;;;;;;;;;;;;
2022/11/05 10:36:12;;;;;;;3.90;0.68;;;11.10;99.90;;;;;;4935579;29;20055;-86
2022/11/05 10:39:13;;;;;;;2.53;0.60;;;11.20;99.90;;;;;;4953447;29;20062;-86
2022/11/05 10:42:15;;;;;;;2.05;0.98;;;11.90;99.90;;;;;;4949636;29;20552;-87
2022/11/05 10:45:28;;;;;;;2.03;0.70;;;11.80;99.90;;;;;;4937532;29;20050;-87
2022/11/05 10:49:01;;;;;;;1.48;0.60;;;12.10;99.90;;;;;;4937072;29;20047;-89
2022/11/05 10:52:32;;;;;;;3.40;0.77;;;12.30;99.90;;;;;;4934839;29;20420;-89
2022/11/05 10:56:00;;;;;;;1.25;0.60;;;12.50;99.90;;;;;;4921369;29;20070;-88
2022/11/05 10:59:21;;;;;;;;;;;;;;;;;;;;;
2022/11/05 11:02:53;;;;;;;0.40;0.40;;;12.70;99.90;;;;;;4923757;29;20079;-89
2022/11/05 11:05:42;;;;;;;;;;;12.80;99.90;;;;;;4970293;28;20566;-87
2022/11/05 11:08:49;;;;;;;5.75;1.45;;;12.80;99.90;;;;;;4973840;28;19922;-89
2022/11/05 11:12:22;;;;;;;5.80;1.00;;;12.80;99.90;;;;;;4974115;28;20086;-89
2022/11/05 11:15:24;;;;;;;3.58;0.80;;;12.80;99.90;;;;;;4962833;28;20055;-88
2022/11/05 11:18:49;;;;;;;1.67;0.80;;;12.80;99.90;;;;;;4966341;28;20073;-89
2022/11/05 11:22:23;;;;;;;;;;;;;;;;;;;;;
2022/11/05 11:26:05;;;;;;;;;;;;;;;;;;;;;
2022/11/05 11:29:17;;;;;;;1.10;0.68;;;12.80;99.90;;;;;;4972614;28;20492;-91
2022/11/05 11:32:17;;;;;;;4.72;0.60;;;12.90;99.90;;;;;;4972777;28;20105;-89
2022/11/05 11:35:15;;;;;;;2.63;0.68;;;12.90;99.90;;;;;;4972448;28;20452;-89
2022/11/05 11:38:32;;;;;;;;;;;;;;;;;;;;;
2022/11/05 11:41:41;;;;;;;;;;;;;;;;;;;;;
2022/11/05 11:45:04;;;;;;;3.10;0.80;;;13.20;99.90;;;;;;4967173;28;20518;-88
2022/11/05 11:48:45;;;;;;;;;;;;;;;;;;;;;
2022/11/05 11:52:22;;;;;;;3.28;0.60;;;13.30;99.90;;;;;;4972606;28;20050;-89
2022/11/05 11:55:54;;;;;;;2.70;0.77;;;13.50;99.90;;;;;;4955686;28;20062;-91
2022/11/05 11:59:52;;;;;;;;;;;;;;;;;;;;;
2022/11/05 12:03:47;;;;;;;;;;;;;;;;;;;;;
2022/11/05 12:07:03;;;;;;;5.63;0.57;;;13.40;99.90;;;;;;4914692;29;20100;-90
2022/11/05 12:10:35;;;;;;;;;;;;;;;;;;;;;
2022/11/05 12:13:55;;;;;;;1.77;0.50;;;13.40;99.90;;;;;;4898859;29;20060;-88
2022/11/05 12:17:27;;;;;;;3.10;0.70;;;13.30;99.90;;;;;;4914734;29;20437;-91
2022/11/05 12:20:39;;;;;;;1.02;0.50;;;13.20;99.90;;;;;;4898545;29;20116;-90
2022/11/05 12:24:24;;;;;;;;;;;;;;;;;;;;;
2022/11/05 12:27:46;;;;;;;1.10;0.43;;;13.00;99.90;;;;;;4914665;29;20608;-87
2022/11/05 12:30:42;;;;;;;;;;;;;;;;;;;;;
2022/11/05 12:33:30;;;;;;;3.10;0.52;;;12.80;99.90;;;;;;4918070;29;20056;-89
2022/11/05 12:36:46;;;;;;;3.33;0.60;;;12.70;99.90;;;;;;4933733;29;20070;-90
2022/11/05 12:40:00;;;;;;;0.57;0.40;;;12.60;99.90;;;;;;4854817;29;20060;-90
2022/11/05 12:43:06;;;;;;;2.22;0.43;;;12.60;99.90;;;;;;4886453;29;20401;-89
2022/11/05 12:46:02;;;;;;;1.25;0.40;;;12.60;99.90;;;;;;4931235;29;20134;-89
2022/11/05 12:49:18;;;;;;;;;;;;;;;;;;;;;
2022/11/05 12:52:21;;;;;;;1.55;0.40;;;12.50;99.90;;;;;;4937412;29;20131;-90
2022/11/05 12:55:38;;;;;;;1.85;0.30;;;12.50;99.90;;;;;;4976351;28;20066;-89
2022/11/05 12:58:54;;;;;;;0.32;0.28;;;12.20;99.90;;;;;;4976919;28;20050;-88
2022/11/05 13:01:57;;;;;;;2.92;0.32;;;12.30;99.90;;;;;;4971721;28;20055;-89
2022/11/05 13:05:29;;;;;;;;;;;;;;;;;;;;;
2022/11/05 13:08:46;;;;;;;0.55;0.20;;;12.10;99.90;;;;;;4955652;28;20062;-89
2022/11/05 13:11:49;;;;;;;0.75;0.10;;;12.10;99.90;;;;;;4955559;28;20083;-89
2022/11/05 13:14:54;;;;;;;1.27;0.20;;;12.00;99.90;;;;;;4923163;28;20106;-87
2022/11/05 13:18:06;;;;;;;;;;;;;;;;;;;;;
2022/11/05 13:21:02;;;;;;;1.08;0.20;;;11.90;99.90;;;;;;4955240;28;20055;-88
2022/11/05 13:24:31;;;;;;;2.38;0.22;;;11.60;99.90;;;;;;4955103;28;20130;-86
2022/11/05 13:27:52;;;;;;;0.20;0.20;;;11.40;99.90;;;;;;4946676;28;20126;-87
2022/11/05 13:31:01;;;;;;;0.10;0.10;;;11.40;99.90;;;;;;4956427;28;20055;-89
2022/11/05 13:34:08;;;;;;;0.38;0.20;;;11.20;99.90;;;;;;4939628;29;20575;-90
2022/11/05 13:40:27;;;;;;;;;;;;;;;;;;;;;
2022/11/05 13:44:04;;;;;;;0.82;0.20;;;11.30;99.90;;;;;;4962934;28;20054;-90
2022/11/05 13:47:12;;;;;;;;;;;;;;;;;;;;;
2022/11/05 13:50:30;;;;;;;;;;;;;;;;;;;;;
2022/11/05 13:53:34;;;;;;;0.52;0.20;;;11.10;99.90;;;;;;4995381;28;20054;-90
2022/11/05 13:56:49;;;;;;;1.58;0.30;;;11.10;99.90;;;;;;4995091;28;20053;-89
2022/11/05 14:00:18;;;;;;;0.57;0.25;;;11.10;99.90;;;;;;4994900;28;20050;-90
2022/11/05 14:03:30;;;;;;;;;;;11.10;99.90;;;;;;4995684;28;20050;-90
2022/11/05 14:06:56;;;;;;;;;;;;;;;;;;;;;
2022/11/05 14:10:13;;;;;;;;;;;;;;;;;;;;;
2022/11/05 14:13:00;;;;;;;0.90;0.30;;;11.10;99.90;;;;;;4957321;28;20063;-91
2022/11/05 14:16:35;;;;;;;;;;;;;;;;;;;;;
2022/11/05 14:19:50;;;;;;;0.32;0.30;;;11.10;99.90;;;;;;4907737;29;20063;-89
2022/11/05 14:23:01;;;;;;;1.40;0.38;;;10.80;99.90;;;;;;4938076;29;20050;-90
2022/11/05 14:25:58;;;;;;;1.88;0.40;;;11.10;99.90;;;;;;4938102;29;20492;-90
2022/11/05 14:29:30;;;;;;;;;;;;;;;;;;;;;
2022/11/05 14:32:48;;;;;;;1.10;0.40;;;11.10;99.90;;;;;;4953974;28;20078;-88
2022/11/05 14:35:59;;;;;;;1.33;0.40;;;11.10;99.90;;;;;;4951185;29;20508;-89
2022/11/05 14:39:23;;;;;;;0.45;0.40;;;11.00;99.90;;;;;;4953853;28;20059;-90
2022/11/05 14:42:58;;;;;;;;;;;;;;;;;;;;;
2022/11/05 14:45:53;;;;;;;0.70;0.40;;;11.00;99.90;;;;;;4934489;29;20055;-90
2022/11/05 14:48:55;;;;;;;1.00;0.38;;;10.90;99.90;;;;;;4918674;29;20052;-90
2022/11/05 14:52:01;;;;;;;3.13;0.50;;;10.90;99.90;;;;;;4934232;29;20079;-89
2022/11/05 14:55:16;;;;;;;1.58;0.60;;;11.30;99.90;;;;;;4918272;29;20090;-89
2022/11/05 14:58:26;;;;;;;1.77;0.68;;;10.80;99.90;;;;;;4896885;29;20056;-91
2022/11/05 15:01:50;;;;;;;4.45;0.98;;;10.80;99.90;;;;;;4917158;29;20092;-89
2022/11/05 15:05:02;;;;;;;3.60;0.80;;;10.80;99.90;;;;;;4902096;29;20051;-90
2022/11/05 15:08:28;;;;;;;2.67;1.20;;;10.90;99.90;;;;;;4934103;29;20058;-88
2022/11/05 15:11:28;;;;;;;4.07;1.45;;;10.40;99.90;;;;;;4919001;29;20456;-90
2022/11/05 15:14:42;;;;;;;4.07;1.02;;;10.80;99.90;;;;;;4910451;29;20409;-90
2022/11/05 15:18:00;;;;;;;;;;;;;;;;;;;;;
2022/11/05 15:20:52;;;;;;;2.70;1.08;;;10.80;99.90;;;;;;4934706;29;20082;-89
2022/11/05 15:24:16;;;;;;;;;;;;;;;;;;;;;
2022/11/05 15:27:46;;;;;;;;;;;;;;;;;;;;;
2022/11/05 15:30:51;;;;;;;;;;;10.80;99.90;;;;;;4953705;28;20501;-90
2022/11/05 15:34:19;;;;;;;3.30;1.02;;;10.60;99.90;;;;;;4952978;28;19992;-89
2022/11/05 15:37:20;;;;;;;7.70;1.25;;;10.70;99.90;;;;;;4952877;28;20058;-89
2022/11/05 15:40:45;;;;;;;2.85;1.13;;;10.60;99.90;;;;;;4952956;28;20051;-89
2022/11/05 15:44:05;;;;;;;2.60;1.50;;;10.60;99.90;;;;;;4952908;28;20051;-89
2022/11/05 15:47:17;;;;;;;;;;;;;;;;;;;;;
2022/11/05 15:50:39;;;;;;;3.33;1.30;;;10.60;99.90;;;;;;4904161;28;20045;-88
2022/11/05 15:54:03;;;;;;;3.15;1.17;;;10.50;99.90;;;;;;4937249;28;20079;-94
2022/11/05 15:56:52;;;;;;;3.10;1.30;;;10.40;99.90;;;;;;4957490;28;20522;-87
2022/11/05 15:59:23;;;;;;;5.50;1.60;;;10.40;99.90;;;;;;4931534;29;20408;-87
2022/11/05 16:02:01;;;;;;;4.25;1.70;;;10.40;99.90;;;;;;4959133;28;20035;-90
2022/11/05 16:04:37;;;;;;;2.17;0.98;;;10.40;99.90;;;;;;4950993;28;20192;-88
2022/11/05 16:07:28;;;;;;;4.40;1.58;;;10.30;99.90;;;;;;4963593;28;20446;-89
2022/11/05 16:10:44;;;;;;;4.93;1.50;;;10.80;99.90;;;;;;4975733;28;20372;-91
2022/11/05 16:14:12;;;;;;;6.13;1.17;;;10.30;99.90;;;;;;4990112;28;20058;-88
2022/11/05 16:17:10;;;;;;;4.35;1.55;;;10.20;99.90;;;;;;5000263;28;20406;-89
2022/11/05 16:20:05;;;;;;;2.80;1.25;;;10.20;99.90;;;;;;4992910;28;20465;-87
2022/11/05 16:23:22;;;;;;;;;;;;;;;;;;;;;
2022/11/05 16:27:10;;;;;;;7.03;1.52;;;10.10;99.90;;;;;;4969788;28;20061;-87
2022/11/05 16:30:25;;;;;;;2.60;1.27;;;10.00;99.90;;;;;;4998280;28;20395;-88
2022/11/05 16:33:33;;;;;;;4.72;1.80;;;9.90;99.90;;;;;;4990218;28;20044;-89
2022/11/05 16:37:10;;;;;;;;;;;;;;;;;;;;;
2022/11/05 16:40:28;;;;;;;4.88;1.70;;;10.00;99.90;;;;;;5005195;28;20047;-86
2022/11/05 16:44:10;;;;;;;3.63;1.77;;;9.80;99.90;;;;;;4973135;28;20089;-90
2022/11/05 16:47:36;;;;;;;3.17;1.75;;;9.70;99.90;;;;;;5008640;28;20084;-89
2022/11/05 16:50:51;;;;;;;5.63;1.80;;;9.70;99.90;;;;;;5006322;28;20054;-89
2022/11/05 16:54:28;;;;;;;;;;;;;;;;;;;;;
2022/11/05 16:57:37;;;;;;;5.18;1.55;;;9.70;99.90;;;;;;4978723;28;20145;-89
2022/11/05 17:00:05;;;;;;;2.65;1.48;;;9.80;99.90;;;;;;4979562;28;20050;-88
2022/11/05 17:02:35;;;;;;;2.63;1.42;;;9.70;99.90;;;;;;4973988;28;20103;-90
2022/11/05 17:09:35;;;;;;;5.47;2.38;;;9.70;99.90;;;;;;4936844;29;20048;-89
2022/11/05 17:12:34;;;;;;;3.97;1.80;;;9.80;99.90;;;;;;4924122;29;20068;-88
2022/11/05 17:15:36;;;;;;;;;;;;;;;;;;;;;
2022/11/05 17:18:23;;;;;;;3.70;1.70;;;9.60;99.90;;;;;;4944208;28;20051;-91
2022/11/05 17:21:14;;;;;;;3.53;1.80;;;9.50;99.90;;;;;;4921060;29;20047;-89
2022/11/05 17:24:08;;;;;;;3.05;1.55;;;9.50;99.90;;;;;;4936985;29;20212;-90
2022/11/05 17:27:25;;;;;;;5.20;1.73;;;9.40;99.90;;;;;;4904915;29;20138;-90
2022/11/05 17:30:21;;;;;;;4.35;1.95;;;9.50;99.90;;;;;;4944524;29;20421;-89
2022/11/05 17:33:49;;;;;;;6.05;2.35;;;9.50;99.90;;;;;;4924732;29;20055;-88
2022/11/05 17:37:10;;;;;;;;;;;;;;;;;;;;;
2022/11/05 17:39:40;;;;;;;6.57;2.13;;;9.50;99.90;;;;;;4923864;29;20162;-88
2022/11/05 17:42:29;;;;;;;5.10;2.13;;;9.50;99.90;;;;;;4946197;29;20047;-88
2022/11/05 17:45:44;;;;;;;;;;;;;;;;;;;;;
2022/11/05 17:48:50;;;;;;;8.38;2.50;;;8.80;99.90;;;;;;5029946;28;20053;-89
2022/11/05 17:51:46;;;;;;;;;;;;;;;;;;;;;
2022/11/05 17:54:25;;;;;;;5.50;2.58;;;9.50;99.90;;;;;;4994401;28;20142;-88
2022/11/05 17:57:02;;;;;;;3.72;1.85;;;9.50;99.90;;;;;;5017898;28;20057;-90
2022/11/05 17:59:31;;;;;;;6.75;2.47;;;9.50;99.90;;;;;;5022841;28;20029;-86
2022/11/05 18:02:17;;;;;;;6.72;3.17;;;9.50;99.90;;;;;;5020413;28;20414;-84
2022/11/05 18:05:04;;;;;;;6.15;3.17;;;10.00;99.90;;;;;;5006343;28;20137;-87
2022/11/05 18:07:35;;;;;;;5.15;2.80;;;9.60;99.90;;;;;;5017616;28;20057;-86
2022/11/05 18:10:08;;;;;;;7.95;3.38;;;9.60;99.90;;;;;;5005088;28;20042;-83
2022/11/05 18:12:38;;;;;;;5.45;3.20;;;9.60;99.90;;;;;;5018144;28;20429;-86
2022/11/05 18:15:10;;;;;;;6.25;3.45;;;9.60;99.90;;;;;;5006933;28;20092;-87
2022/11/05 18:17:40;;;;;;;13.35;3.50;;;9.60;99.90;;;;;;5034843;28;20096;-86
2022/11/05 18:20:25;;;;;;;6.68;2.60;;;9.70;99.90;;;;;;5035091;28;20047;-86
2022/11/05 18:23:25;;;;;;;8.10;3.25;;;9.60;99.90;;;;;;5034463;28;20042;-86
2022/11/05 18:26:20;;;;;;;6.65;2.80;;;9.60;99.90;;;;;;5032782;28;20084;-86
2022/11/05 18:29:17;;;;;;;9.07;3.28;;;9.60;99.90;;;;;;5008596;28;20054;-90
2022/11/05 18:32:00;;;;;;;7.28;3.30;;;9.70;99.90;;;;;;5025035;28;20034;-83
2022/11/05 18:34:44;;;;;;;8.93;3.78;;;9.70;99.90;;;;;;5011848;28;20106;-86
2022/11/05 18:38:04;;;;;;;;;;;;;;;;;;;;;
2022/11/05 18:41:25;;;;;;;6.07;3.20;;;9.70;99.90;;;;;;5034439;28;20114;-88
2022/11/05 18:44:56;;;;;;;;;;;;;;;;;;;;;
2022/11/05 18:48:10;;;;;;;;;;;;;;;;;;;;;
2022/11/05 18:51:31;;;;;;;;;;;;;;;;;;;;;
2022/11/05 18:54:50;;;;;;;5.65;2.45;;;9.20;99.90;;;;;;4981325;28;20062;-86
2022/11/05 18:57:58;;;;;;;6.95;3.90;;;9.20;99.90;;;;;;4966398;28;20057;-86
2022/11/05 19:01:11;;;;;;;;;;;;;;;;;;;;;
2022/11/05 19:04:03;;;;;;;;;;;9.70;99.90;;;;;;4958752;28;20102;-87
2022/11/05 19:07:06;;;;;;;7.38;3.88;;;9.70;99.90;;;;;;4938408;28;20016;-87
2022/11/05 19:10:09;;;;;;;7.65;3.60;;;9.70;99.90;;;;;;4954275;28;20576;-86
2022/11/05 19:13:15;;;;;;;10.20;3.67;;;9.70;99.90;;;;;;4955512;28;20105;-88
2022/11/05 19:17:18;;;;;;;4.28;3.00;;;9.70;99.90;;;;;;4924209;29;20055;-87
2022/11/05 19:20:43;;;;;;;9.27;3.85;;;9.70;99.90;;;;;;4922691;29;20569;-88
2022/11/05 19:23:52;;;;;;;6.13;3.45;;;9.80;99.90;;;;;;4908068;29;20055;-88
2022/11/05 19:26:24;;;;;;;8.45;3.92;;;9.70;99.90;;;;;;4923782;29;20133;-88
2022/11/05 19:29:30;;;;;;;5.93;3.33;;;9.70;99.90;;;;;;4932070;29;20079;-86
2022/11/05 19:32:56;;;;;;;8.38;3.35;;;9.70;99.90;;;;;;4933863;29;20079;-85
2022/11/05 19:36:07;;;;;;;7.75;3.72;;;9.80;99.90;;;;;;4912280;29;20127;-86
2022/11/05 19:39:40;;;;;;;10.10;3.97;;;9.80;99.90;;;;;;4935330;29;20066;-86
2022/11/05 19:42:41;;;;;;;6.80;3.80;;;9.80;99.90;;;;;;4930467;29;20087;-88
2022/11/05 19:45:58;;;;;;;7.65;3.70;;;10.20;99.90;;;;;;4931992;28;20062;-86